QUG weather

Chichester/Goodwood Airport
Chichester, England, United Kingdom

Public forecast

Using degrees Celsius for public forecast. Weather courtesy of forecast.io.

Closest aviation weather report (METAR) to Chichester/Goodwood Airport

Closest report is Shoreham Airport, 17.6 nm (32.5 km) E. Retrieved 2019/10/16 11:20 UTC (20 minutes ago):

EGKA 161120Z 25011KT 9999 FEW018 14/11 Q1003

Closest aviation forecast (TAF) to Chichester/Goodwood Airport

Forecast is more than 12 hours old.

Closest forecast is Shoreham Airport, 17.6 nm (32.5 km) E. Retrieved 2016/03/02 12:00 UTC (4 years ago):

TAF EGKA 021104Z 0212/0221 25015G25KT 9999 SCT020 TEMPO 0212/0216 25025G38KT 5000 SHRA BKN012CB PROB30 TEMPO 0212/0215 2500 +SHGS +SHRASN TEMPO 0216/0221 29025G35KT TEMPO 0218/0221 BKN014